sensor_id;sensor_type;location;lat;lon;timestamp;temperature;humidity
17918;DHT22;9084;50.956;3.106;2023-05-07T00:02:19;16.50;99.90
17918;DHT22;9084;50.956;3.106;2023-05-07T00:04:44;16.40;99.90
17918;DHT22;9084;50.956;3.106;2023-05-07T00:07:10;16.50;99.90
17918;DHT22;9084;50.956;3.106;2023-05-07T00:09:38;16.40;99.90
17918;DHT22;9084;50.956;3.106;2023-05-07T00:12:04;16.40;99.90
17918;DHT22;9084;50.956;3.106;2023-05-07T00:14:32;16.40;99.90
17918;DHT22;9084;50.956;3.106;2023-05-07T00:16:58;16.40;99.90
17918;DHT22;9084;50.956;3.106;2023-05-07T00:19:23;16.40;99.90
17918;DHT22;9084;50.956;3.106;2023-05-07T00:21:49;16.40;99.90
17918;DHT22;9084;50.956;3.106;2023-05-07T00:24:17;16.40;99.90
17918;DHT22;9084;50.956;3.106;2023-05-07T00:26:43;16.40;99.90
17918;DHT22;9084;50.956;3.106;2023-05-07T00:29:08;16.40;99.90
17918;DHT22;9084;50.956;3.106;2023-05-07T00:31:34;16.40;99.90
17918;DHT22;9084;50.956;3.106;2023-05-07T00:34:00;16.40;99.90
17918;DHT22;9084;50.956;3.106;2023-05-07T00:36:28;16.30;99.90
17918;DHT22;9084;50.956;3.106;2023-05-07T00:38:54;16.30;99.90
17918;DHT22;9084;50.956;3.106;2023-05-07T00:41:20;16.30;99.90
17918;DHT22;9084;50.956;3.106;2023-05-07T00:43:46;16.30;99.90
17918;DHT22;9084;50.956;3.106;2023-05-07T00:46:13;16.30;99.90
17918;DHT22;9084;50.956;3.106;2023-05-07T00:48:42;16.30;99.90
17918;DHT22;9084;50.956;3.106;2023-05-07T00:51:10;16.30;99.90
17918;DHT22;9084;50.956;3.106;2023-05-07T00:53:37;16.30;99.90
17918;DHT22;9084;50.956;3.106;2023-05-07T00:56:06;16.30;99.90
17918;DHT22;9084;50.956;3.106;2023-05-07T00:58:33;16.30;99.90
17918;DHT22;9084;50.956;3.106;2023-05-07T01:00:59;16.30;99.90
17918;DHT22;9084;50.956;3.106;2023-05-07T01:03:27;16.30;99.90
17918;DHT22;9084;50.956;3.106;2023-05-07T01:05:53;16.20;99.90
17918;DHT22;9084;50.956;3.106;2023-05-07T01:08:23;16.20;99.90
17918;DHT22;9084;50.956;3.106;2023-05-07T01:10:53;16.20;99.90
17918;DHT22;9084;50.956;3.106;2023-05-07T01:13:21;16.20;99.90
17918;DHT22;9084;50.956;3.106;2023-05-07T01:15:50;16.20;99.90
17918;DHT22;9084;50.956;3.106;2023-05-07T01:18:16;16.10;99.90
17918;DHT22;9084;50.956;3.106;2023-05-07T01:20:42;16.10;99.90
17918;DHT22;9084;50.956;3.106;2023-05-07T01:23:08;16.00;99.90
17918;DHT22;9084;50.956;3.106;2023-05-07T01:25:36;15.90;99.90
17918;DHT22;9084;50.956;3.106;2023-05-07T01:28:01;15.80;99.90
17918;DHT22;9084;50.956;3.106;2023-05-07T01:30:27;15.80;99.90
17918;DHT22;9084;50.956;3.106;2023-05-07T01:35:30;15.70;99.90
17918;DHT22;9084;50.956;3.106;2023-05-07T01:38:00;15.70;99.90
17918;DHT22;9084;50.956;3.106;2023-05-07T01:40:27;15.70;99.90
17918;DHT22;9084;50.956;3.106;2023-05-07T01:42:53;15.70;99.90
17918;DHT22;9084;50.956;3.106;2023-05-07T01:45:19;15.70;99.90
17918;DHT22;9084;50.956;3.106;2023-05-07T01:47:48;15.80;99.90
17918;DHT22;9084;50.956;3.106;2023-05-07T01:50:16;15.80;99.90
17918;DHT22;9084;50.956;3.106;2023-05-07T01:52:44;15.80;99.90
17918;DHT22;9084;50.956;3.106;2023-05-07T01:55:10;15.90;99.90
17918;DHT22;9084;50.956;3.106;2023-05-07T01:57:41;15.90;99.90
17918;DHT22;9084;50.956;3.106;2023-05-07T02:00:09;15.90;99.90
17918;DHT22;9084;50.956;3.106;2023-05-07T02:02:37;15.90;99.90
17918;DHT22;9084;50.956;3.106;2023-05-07T02:05:06;15.90;99.90
17918;DHT22;9084;50.956;3.106;2023-05-07T02:07:34;15.90;99.90
17918;DHT22;9084;50.956;3.106;2023-05-07T02:10:02;15.90;99.90
17918;DHT22;9084;50.956;3.106;2023-05-07T02:12:28;15.90;99.90
17918;DHT22;9084;50.956;3.106;2023-05-07T02:14:54;15.90;99.90
17918;DHT22;9084;50.956;3.106;2023-05-07T02:17:22;15.90;99.90
17918;DHT22;9084;50.956;3.106;2023-05-07T02:19:47;16.00;99.90
17918;DHT22;9084;50.956;3.106;2023-05-07T02:22:13;15.90;99.90
17918;DHT22;9084;50.956;3.106;2023-05-07T02:24:39;15.90;99.90
17918;DHT22;9084;50.956;3.106;2023-05-07T02:27:04;15.90;99.90
17918;DHT22;9084;50.956;3.106;2023-05-07T02:29:30;15.90;99.90
17918;DHT22;9084;50.956;3.106;2023-05-07T02:31:55;15.90;99.90
17918;DHT22;9084;50.956;3.106;2023-05-07T02:34:21;15.80;99.90
17918;DHT22;9084;50.956;3.106;2023-05-07T02:36:47;15.80;99.90
17918;DHT22;9084;50.956;3.106;2023-05-07T02:39:16;15.80;99.90
17918;DHT22;9084;50.956;3.106;2023-05-07T02:41:42;15.80;99.90
17918;DHT22;9084;50.956;3.106;2023-05-07T02:44:12;15.70;99.90
17918;DHT22;9084;50.956;3.106;2023-05-07T02:46:37;15.70;99.90
17918;DHT22;9084;50.956;3.106;2023-05-07T02:49:03;15.70;99.90
17918;DHT22;9084;50.956;3.106;2023-05-07T02:51:30;15.70;99.90
17918;DHT22;9084;50.956;3.106;2023-05-07T02:53:56;15.70;99.90
17918;DHT22;9084;50.956;3.106;2023-05-07T02:56:22;15.70;99.90
17918;DHT22;9084;50.956;3.106;2023-05-07T02:58:47;15.60;99.90
17918;DHT22;9084;50.956;3.106;2023-05-07T03:01:15;15.70;99.90
17918;DHT22;9084;50.956;3.106;2023-05-07T03:03:41;15.60;99.90
17918;DHT22;9084;50.956;3.106;2023-05-07T03:06:09;15.60;99.90
17918;DHT22;9084;50.956;3.106;2023-05-07T03:08:35;15.60;99.90
17918;DHT22;9084;50.956;3.106;2023-05-07T03:11:02;15.60;99.90
17918;DHT22;9084;50.956;3.106;2023-05-07T03:13:30;15.60;99.90
17918;DHT22;9084;50.956;3.106;2023-05-07T03:15:58;15.60;99.90
17918;DHT22;9084;50.956;3.106;2023-05-07T03:18:24;15.60;99.90
17918;DHT22;9084;50.956;3.106;2023-05-07T03:20:51;15.60;99.90
17918;DHT22;9084;50.956;3.106;2023-05-07T03:23:19;15.60;99.90
17918;DHT22;9084;50.956;3.106;2023-05-07T03:25:45;15.60;99.90
17918;DHT22;9084;50.956;3.106;2023-05-07T03:28:11;15.60;99.90
17918;DHT22;9084;50.956;3.106;2023-05-07T03:30:39;15.50;99.90
17918;DHT22;9084;50.956;3.106;2023-05-07T03:33:09;15.60;99.90
17918;DHT22;9084;50.956;3.106;2023-05-07T03:35:35;15.60;99.90
17918;DHT22;9084;50.956;3.106;2023-05-07T03:38:01;15.60;99.90
17918;DHT22;9084;50.956;3.106;2023-05-07T03:40:26;15.50;99.90
17918;DHT22;9084;50.956;3.106;2023-05-07T03:42:54;15.60;99.90
17918;DHT22;9084;50.956;3.106;2023-05-07T03:45:20;15.60;99.90
17918;DHT22;9084;50.956;3.106;2023-05-07T03:47:46;15.50;99.90
17918;DHT22;9084;50.956;3.106;2023-05-07T03:50:11;15.60;99.90
17918;DHT22;9084;50.956;3.106;2023-05-07T03:52:37;15.50;99.90
17918;DHT22;9084;50.956;3.106;2023-05-07T03:55:03;15.50;99.90
17918;DHT22;9084;50.956;3.106;2023-05-07T03:57:28;15.40;99.90
17918;DHT22;9084;50.956;3.106;2023-05-07T03:59:56;15.40;99.90
17918;DHT22;9084;50.956;3.106;2023-05-07T04:02:24;15.40;99.90
17918;DHT22;9084;50.956;3.106;2023-05-07T04:04:54;15.40;99.90
17918;DHT22;9084;50.956;3.106;2023-05-07T04:07:20;15.40;99.90
17918;DHT22;9084;50.956;3.106;2023-05-07T04:09:46;15.40;99.90
17918;DHT22;9084;50.956;3.106;2023-05-07T04:12:16;15.30;99.90
17918;DHT22;9084;50.956;3.106;2023-05-07T04:14:41;15.40;99.90
17918;DHT22;9084;50.956;3.106;2023-05-07T04:17:09;15.40;99.90
17918;DHT22;9084;50.956;3.106;2023-05-07T04:19:36;15.40;99.90
17918;DHT22;9084;50.956;3.106;2023-05-07T04:22:01;15.40;99.90
17918;DHT22;9084;50.956;3.106;2023-05-07T04:24:30;15.40;99.90
17918;DHT22;9084;50.956;3.106;2023-05-07T04:26:56;15.50;99.90
17918;DHT22;9084;50.956;3.106;2023-05-07T04:29:27;15.50;99.90
17918;DHT22;9084;50.956;3.106;2023-05-07T04:31:53;15.50;99.90
17918;DHT22;9084;50.956;3.106;2023-05-07T04:34:24;15.50;99.90
17918;DHT22;9084;50.956;3.106;2023-05-07T04:36:52;15.60;99.90
17918;DHT22;9084;50.956;3.106;2023-05-07T04:39:18;15.60;99.90
17918;DHT22;9084;50.956;3.106;2023-05-07T04:41:44;15.60;99.90
17918;DHT22;9084;50.956;3.106;2023-05-07T04:44:09;15.60;99.90
17918;DHT22;9084;50.956;3.106;2023-05-07T04:46:36;15.60;99.90
17918;DHT22;9084;50.956;3.106;2023-05-07T04:49:01;15.70;99.90
17918;DHT22;9084;50.956;3.106;2023-05-07T04:51:28;15.70;99.90
17918;DHT22;9084;50.956;3.106;2023-05-07T04:53:54;15.70;99.90
17918;DHT22;9084;50.956;3.106;2023-05-07T04:56:19;15.70;99.90
17918;DHT22;9084;50.956;3.106;2023-05-07T04:58:46;15.80;99.90
17918;DHT22;9084;50.956;3.106;2023-05-07T05:01:11;15.90;99.90
17918;DHT22;9084;50.956;3.106;2023-05-07T05:03:39;15.90;99.90
17918;DHT22;9084;50.956;3.106;2023-05-07T05:06:07;15.90;99.90
17918;DHT22;9084;50.956;3.106;2023-05-07T05:08:33;16.00;99.90
17918;DHT22;9084;50.956;3.106;2023-05-07T05:11:01;16.00;99.90
17918;DHT22;9084;50.956;3.106;2023-05-07T05:13:29;16.00;99.90
17918;DHT22;9084;50.956;3.106;2023-05-07T05:15:55;16.00;99.90
17918;DHT22;9084;50.956;3.106;2023-05-07T05:18:22;16.00;99.90
17918;DHT22;9084;50.956;3.106;2023-05-07T05:20:47;16.10;99.90
17918;DHT22;9084;50.956;3.106;2023-05-07T05:23:13;16.10;99.90
17918;DHT22;9084;50.956;3.106;2023-05-07T05:25:39;16.20;99.90
17918;DHT22;9084;50.956;3.106;2023-05-07T05:28:05;16.20;99.90
17918;DHT22;9084;50.956;3.106;2023-05-07T05:30:33;16.20;99.90
17918;DHT22;9084;50.956;3.106;2023-05-07T05:32:59;16.20;99.90
17918;DHT22;9084;50.956;3.106;2023-05-07T05:35:25;16.20;99.90
17918;DHT22;9084;50.956;3.106;2023-05-07T05:37:53;16.30;99.90
17918;DHT22;9084;50.956;3.106;2023-05-07T05:40:21;16.30;99.90
17918;DHT22;9084;50.956;3.106;2023-05-07T05:42:46;16.30;99.90
17918;DHT22;9084;50.956;3.106;2023-05-07T05:45:12;16.40;99.90
17918;DHT22;9084;50.956;3.106;2023-05-07T05:47:38;16.40;99.90
17918;DHT22;9084;50.956;3.106;2023-05-07T05:50:05;16.40;99.90
17918;DHT22;9084;50.956;3.106;2023-05-07T05:52:39;16.40;99.90
17918;DHT22;9084;50.956;3.106;2023-05-07T05:55:09;16.40;99.90
17918;DHT22;9084;50.956;3.106;2023-05-07T05:57:35;16.40;99.90
17918;DHT22;9084;50.956;3.106;2023-05-07T06:00:01;16.40;99.90
17918;DHT22;9084;50.956;3.106;2023-05-07T06:02:30;16.40;99.90
17918;DHT22;9084;50.956;3.106;2023-05-07T06:04:56;16.40;99.90
17918;DHT22;9084;50.956;3.106;2023-05-07T06:07:21;16.40;99.90
17918;DHT22;9084;50.956;3.106;2023-05-07T06:09:47;16.40;99.90
17918;DHT22;9084;50.956;3.106;2023-05-07T06:12:12;16.50;99.90
17918;DHT22;9084;50.956;3.106;2023-05-07T06:14:43;16.40;99.90
17918;DHT22;9084;50.956;3.106;2023-05-07T06:17:11;16.50;99.90
17918;DHT22;9084;50.956;3.106;2023-05-07T06:19:37;16.50;99.90
17918;DHT22;9084;50.956;3.106;2023-05-07T06:22:02;16.50;99.90
17918;DHT22;9084;50.956;3.106;2023-05-07T06:24:28;16.50;99.90
17918;DHT22;9084;50.956;3.106;2023-05-07T06:26:56;16.50;99.90
17918;DHT22;9084;50.956;3.106;2023-05-07T06:29:24;16.50;99.90
17918;DHT22;9084;50.956;3.106;2023-05-07T06:31:53;16.50;99.90
17918;DHT22;9084;50.956;3.106;2023-05-07T06:34:19;16.40;99.90
17918;DHT22;9084;50.956;3.106;2023-05-07T06:36:45;16.40;99.90
17918;DHT22;9084;50.956;3.106;2023-05-07T06:39:10;16.30;99.90
17918;DHT22;9084;50.956;3.106;2023-05-07T06:41:36;16.30;99.90
17918;DHT22;9084;50.956;3.106;2023-05-07T06:44:04;16.20;99.90
17918;DHT22;9084;50.956;3.106;2023-05-07T06:46:32;16.20;99.90
17918;DHT22;9084;50.956;3.106;2023-05-07T06:48:57;16.20;99.90
17918;DHT22;9084;50.956;3.106;2023-05-07T06:51:23;16.20;99.90
17918;DHT22;9084;50.956;3.106;2023-05-07T06:53:49;16.10;99.90
17918;DHT22;9084;50.956;3.106;2023-05-07T06:56:14;16.10;99.90
17918;DHT22;9084;50.956;3.106;2023-05-07T06:58:40;16.10;99.90
17918;DHT22;9084;50.956;3.106;2023-05-07T07:01:06;16.10;99.90
17918;DHT22;9084;50.956;3.106;2023-05-07T07:03:31;16.10;99.90
17918;DHT22;9084;50.956;3.106;2023-05-07T07:05:57;16.10;99.90
17918;DHT22;9084;50.956;3.106;2023-05-07T07:08:25;16.20;99.90
17918;DHT22;9084;50.956;3.106;2023-05-07T07:10:51;16.30;99.90
17918;DHT22;9084;50.956;3.106;2023-05-07T07:13:16;16.30;99.90
17918;DHT22;9084;50.956;3.106;2023-05-07T07:15:43;16.40;99.90
17918;DHT22;9084;50.956;3.106;2023-05-07T07:18:11;16.40;99.90
17918;DHT22;9084;50.956;3.106;2023-05-07T07:20:37;16.50;99.90
17918;DHT22;9084;50.956;3.106;2023-05-07T07:23:03;16.50;99.90
17918;DHT22;9084;50.956;3.106;2023-05-07T07:25:28;16.60;99.90
17918;DHT22;9084;50.956;3.106;2023-05-07T07:27:54;16.60;99.90
17918;DHT22;9084;50.956;3.106;2023-05-07T07:30:20;16.60;99.90
17918;DHT22;9084;50.956;3.106;2023-05-07T07:32:47;16.70;99.90
17918;DHT22;9084;50.956;3.106;2023-05-07T07:35:15;16.80;99.90
17918;DHT22;9084;50.956;3.106;2023-05-07T07:37:43;16.80;99.90
17918;DHT22;9084;50.956;3.106;2023-05-07T07:40:11;16.80;99.90
17918;DHT22;9084;50.956;3.106;2023-05-07T07:42:37;16.90;99.90
17918;DHT22;9084;50.956;3.106;2023-05-07T07:45:05;17.00;99.90
17918;DHT22;9084;50.956;3.106;2023-05-07T07:47:31;17.00;99.90
17918;DHT22;9084;50.956;3.106;2023-05-07T07:49:59;17.10;99.90
17918;DHT22;9084;50.956;3.106;2023-05-07T07:52:25;17.20;99.90
17918;DHT22;9084;50.956;3.106;2023-05-07T07:54:50;17.30;99.90
17918;DHT22;9084;50.956;3.106;2023-05-07T07:57:18;17.40;99.90
17918;DHT22;9084;50.956;3.106;2023-05-07T07:59:44;17.40;99.90
17918;DHT22;9084;50.956;3.106;2023-05-07T08:02:09;17.50;99.90
17918;DHT22;9084;50.956;3.106;2023-05-07T08:04:35;17.60;99.90
17918;DHT22;9084;50.956;3.106;2023-05-07T08:07:03;17.70;99.90
17918;DHT22;9084;50.956;3.106;2023-05-07T08:09:29;17.80;99.90
17918;DHT22;9084;50.956;3.106;2023-05-07T08:11:55;17.90;99.90
17918;DHT22;9084;50.956;3.106;2023-05-07T08:14:23;18.10;99.90
17918;DHT22;9084;50.956;3.106;2023-05-07T08:16:48;18.30;99.90
17918;DHT22;9084;50.956;3.106;2023-05-07T08:19:17;18.50;99.90
17918;DHT22;9084;50.956;3.106;2023-05-07T08:21:45;18.70;99.90
17918;DHT22;9084;50.956;3.106;2023-05-07T08:24:13;18.80;99.90
17918;DHT22;9084;50.956;3.106;2023-05-07T08:26:39;18.90;99.90
17918;DHT22;9084;50.956;3.106;2023-05-07T08:29:07;18.90;99.90
17918;DHT22;9084;50.956;3.106;2023-05-07T08:31:33;18.90;99.90
17918;DHT22;9084;50.956;3.106;2023-05-07T08:34:03;18.90;99.90
17918;DHT22;9084;50.956;3.106;2023-05-07T08:36:31;19.00;99.90
17918;DHT22;9084;50.956;3.106;2023-05-07T08:38:59;18.90;99.90
17918;DHT22;9084;50.956;3.106;2023-05-07T08:41:25;18.90;99.90
17918;DHT22;9084;50.956;3.106;2023-05-07T08:43:51;18.80;99.90
17918;DHT22;9084;50.956;3.106;2023-05-07T08:46:21;18.70;99.90
17918;DHT22;9084;50.956;3.106;2023-05-07T08:48:52;18.60;99.90
17918;DHT22;9084;50.956;3.106;2023-05-07T08:51:21;18.50;99.90
17918;DHT22;9084;50.956;3.106;2023-05-07T08:53:48;18.40;99.90
17918;DHT22;9084;50.956;3.106;2023-05-07T08:56:17;18.30;99.90
17918;DHT22;9084;50.956;3.106;2023-05-07T08:58:43;18.20;99.90
17918;DHT22;9084;50.956;3.106;2023-05-07T09:01:15;18.10;99.90
17918;DHT22;9084;50.956;3.106;2023-05-07T09:03:45;18.00;99.90
17918;DHT22;9084;50.956;3.106;2023-05-07T09:06:13;18.00;99.90
17918;DHT22;9084;50.956;3.106;2023-05-07T09:08:39;17.90;99.90
17918;DHT22;9084;50.956;3.106;2023-05-07T09:11:07;17.90;99.90
17918;DHT22;9084;50.956;3.106;2023-05-07T09:13:33;17.90;99.90
17918;DHT22;9084;50.956;3.106;2023-05-07T09:16:10;17.90;99.90
17918;DHT22;9084;50.956;3.106;2023-05-07T09:18:47;17.80;99.90
17918;DHT22;9084;50.956;3.106;2023-05-07T09:21:17;17.80;99.90
17918;DHT22;9084;50.956;3.106;2023-05-07T09:23:43;17.80;99.90
17918;DHT22;9084;50.956;3.106;2023-05-07T09:26:14;17.80;99.90
17918;DHT22;9084;50.956;3.106;2023-05-07T09:28:42;17.80;99.90
17918;DHT22;9084;50.956;3.106;2023-05-07T09:31:09;17.80;99.90
17918;DHT22;9084;50.956;3.106;2023-05-07T09:33:38;17.80;99.90
17918;DHT22;9084;50.956;3.106;2023-05-07T09:36:05;17.80;99.90
17918;DHT22;9084;50.956;3.106;2023-05-07T09:38:33;17.70;99.90
17918;DHT22;9084;50.956;3.106;2023-05-07T09:41:09;17.70;99.90
17918;DHT22;9084;50.956;3.106;2023-05-07T09:43:39;17.70;99.90
17918;DHT22;9084;50.956;3.106;2023-05-07T09:46:12;17.60;99.90
17918;DHT22;9084;50.956;3.106;2023-05-07T09:48:43;17.60;99.90
17918;DHT22;9084;50.956;3.106;2023-05-07T09:51:24;17.50;99.90
17918;DHT22;9084;50.956;3.106;2023-05-07T09:53:53;17.50;99.90
17918;DHT22;9084;50.956;3.106;2023-05-07T09:56:19;17.50;99.90
17918;DHT22;9084;50.956;3.106;2023-05-07T09:58:46;17.50;99.90
17918;DHT22;9084;50.956;3.106;2023-05-07T10:01:12;17.50;99.90
17918;DHT22;9084;50.956;3.106;2023-05-07T10:03:42;17.60;99.90
17918;DHT22;9084;50.956;3.106;2023-05-07T10:06:11;17.60;99.90
17918;DHT22;9084;50.956;3.106;2023-05-07T10:08:43;17.60;99.90
17918;DHT22;9084;50.956;3.106;2023-05-07T10:11:11;17.50;99.90
17918;DHT22;9084;50.956;3.106;2023-05-07T10:13:37;17.50;99.90
17918;DHT22;9084;50.956;3.106;2023-05-07T10:16:05;17.50;99.90
17918;DHT22;9084;50.956;3.106;2023-05-07T10:18:32;17.50;99.90
17918;DHT22;9084;50.956;3.106;2023-05-07T10:21:23;17.50;99.90
17918;DHT22;9084;50.956;3.106;2023-05-07T10:26:23;17.70;99.90
17918;DHT22;9084;50.956;3.106;2023-05-07T10:28:56;17.70;99.90
17918;DHT22;9084;50.956;3.106;2023-05-07T10:34:14;17.80;99.90
17918;DHT22;9084;50.956;3.106;2023-05-07T10:36:47;17.80;99.90
17918;DHT22;9084;50.956;3.106;2023-05-07T10:39:13;17.80;99.90
17918;DHT22;9084;50.956;3.106;2023-05-07T10:41:41;17.80;99.90
17918;DHT22;9084;50.956;3.106;2023-05-07T10:44:09;18.00;99.90
17918;DHT22;9084;50.956;3.106;2023-05-07T10:46:35;18.10;99.90
17918;DHT22;9084;50.956;3.106;2023-05-07T10:51:32;18.40;99.90
17918;DHT22;9084;50.956;3.106;2023-05-07T10:56:37;18.70;99.90
17918;DHT22;9084;50.956;3.106;2023-05-07T11:02:04;18.90;99.90
17918;DHT22;9084;50.956;3.106;2023-05-07T11:04:32;19.00;99.90
17918;DHT22;9084;50.956;3.106;2023-05-07T11:15:14;19.40;99.90
17918;DHT22;9084;50.956;3.106;2023-05-07T11:18:02;19.50;99.90
17918;DHT22;9084;50.956;3.106;2023-05-07T11:20:58;19.50;99.90
17918;DHT22;9084;50.956;3.106;2023-05-07T11:23:54;19.50;99.90
17918;DHT22;9084;50.956;3.106;2023-05-07T11:26:21;19.40;99.90
17918;DHT22;9084;50.956;3.106;2023-05-07T11:28:47;19.30;99.90
17918;DHT22;9084;50.956;3.106;2023-05-07T11:31:13;19.30;99.90
17918;DHT22;9084;50.956;3.106;2023-05-07T11:33:43;19.30;99.90
17918;DHT22;9084;50.956;3.106;2023-05-07T11:36:16;19.10;99.90
17918;DHT22;9084;50.956;3.106;2023-05-07T11:38:43;19.10;99.90
17918;DHT22;9084;50.956;3.106;2023-05-07T11:41:08;19.10;99.90
17918;DHT22;9084;50.956;3.106;2023-05-07T11:43:37;19.00;99.90
17918;DHT22;9084;50.956;3.106;2023-05-07T11:46:09;19.00;99.90
17918;DHT22;9084;50.956;3.106;2023-05-07T11:48:39;19.00;99.90
17918;DHT22;9084;50.956;3.106;2023-05-07T11:51:06;19.10;99.90
17918;DHT22;9084;50.956;3.106;2023-05-07T11:53:41;19.00;99.90
17918;DHT22;9084;50.956;3.106;2023-05-07T11:56:14;18.90;99.90
17918;DHT22;9084;50.956;3.106;2023-05-07T11:58:41;19.00;99.90
17918;DHT22;9084;50.956;3.106;2023-05-07T12:01:11;19.00;99.90
17918;DHT22;9084;50.956;3.106;2023-05-07T12:03:39;19.00;99.90
17918;DHT22;9084;50.956;3.106;2023-05-07T12:06:08;19.00;99.90
17918;DHT22;9084;50.956;3.106;2023-05-07T12:08:37;18.90;99.90
17918;DHT22;9084;50.956;3.106;2023-05-07T12:11:07;18.70;99.90
17918;DHT22;9084;50.956;3.106;2023-05-07T12:13:33;18.60;99.90
17918;DHT22;9084;50.956;3.106;2023-05-07T12:16:01;18.50;99.90
17918;DHT22;9084;50.956;3.106;2023-05-07T12:18:31;18.50;99.90
17918;DHT22;9084;50.956;3.106;2023-05-07T12:20:57;18.50;99.90
17918;DHT22;9084;50.956;3.106;2023-05-07T12:23:24;18.60;99.90
17918;DHT22;9084;50.956;3.106;2023-05-07T12:25:52;18.50;99.90
17918;DHT22;9084;50.956;3.106;2023-05-07T12:28:19;18.50;99.90
17918;DHT22;9084;50.956;3.106;2023-05-07T12:30:49;18.40;99.90
17918;DHT22;9084;50.956;3.106;2023-05-07T12:33:24;18.30;99.90
17918;DHT22;9084;50.956;3.106;2023-05-07T12:35:50;18.30;99.90
17918;DHT22;9084;50.956;3.106;2023-05-07T12:38:17;18.00;99.90
17918;DHT22;9084;50.956;3.106;2023-05-07T12:40:46;17.70;99.90
17918;DHT22;9084;50.956;3.106;2023-05-07T12:43:26;17.40;99.90
17918;DHT22;9084;50.956;3.106;2023-05-07T12:45:54;17.10;99.90
17918;DHT22;9084;50.956;3.106;2023-05-07T12:48:20;17.00;99.90
17918;DHT22;9084;50.956;3.106;2023-05-07T12:50:56;17.00;99.90
17918;DHT22;9084;50.956;3.106;2023-05-07T12:53:23;17.00;99.90
17918;DHT22;9084;50.956;3.106;2023-05-07T12:55:54;17.10;99.90
17918;DHT22;9084;50.956;3.106;2023-05-07T12:58:35;17.20;99.90
17918;DHT22;9084;50.956;3.106;2023-05-07T13:01:08;17.40;99.90
17918;DHT22;9084;50.956;3.106;2023-05-07T13:03:38;17.60;99.90
17918;DHT22;9084;50.956;3.106;2023-05-07T13:06:08;17.70;99.90
17918;DHT22;9084;50.956;3.106;2023-05-07T13:08:41;17.80;99.90
17918;DHT22;9084;50.956;3.106;2023-05-07T13:11:09;17.90;99.90
17918;DHT22;9084;50.956;3.106;2023-05-07T13:13:39;18.10;99.90
17918;DHT22;9084;50.956;3.106;2023-05-07T13:16:06;18.30;99.90
17918;DHT22;9084;50.956;3.106;2023-05-07T13:18:37;18.50;99.90
17918;DHT22;9084;50.956;3.106;2023-05-07T13:21:05;18.70;99.90
17918;DHT22;9084;50.956;3.106;2023-05-07T13:23:31;18.70;99.90
17918;DHT22;9084;50.956;3.106;2023-05-07T13:25:59;18.70;99.90
17918;DHT22;9084;50.956;3.106;2023-05-07T13:28:26;18.80;99.90
17918;DHT22;9084;50.956;3.106;2023-05-07T13:30:55;18.90;99.90
17918;DHT22;9084;50.956;3.106;2023-05-07T13:33:21;19.00;99.90
17918;DHT22;9084;50.956;3.106;2023-05-07T13:35:49;19.20;99.90
17918;DHT22;9084;50.956;3.106;2023-05-07T13:38:17;19.40;99.90
17918;DHT22;9084;50.956;3.106;2023-05-07T13:40:43;19.60;99.90
17918;DHT22;9084;50.956;3.106;2023-05-07T13:43:11;19.60;99.90
17918;DHT22;9084;50.956;3.106;2023-05-07T13:45:37;19.70;99.90
17918;DHT22;9084;50.956;3.106;2023-05-07T13:48:02;19.80;99.90
17918;DHT22;9084;50.956;3.106;2023-05-07T13:50:28;20.00;99.90
17918;DHT22;9084;50.956;3.106;2023-05-07T13:52:55;20.20;99.90
17918;DHT22;9084;50.956;3.106;2023-05-07T13:55:24;20.30;99.90
17918;DHT22;9084;50.956;3.106;2023-05-07T13:57:59;20.30;99.90
17918;DHT22;9084;50.956;3.106;2023-05-07T14:00:26;20.20;99.90
17918;DHT22;9084;50.956;3.106;2023-05-07T14:02:52;20.20;99.90
17918;DHT22;9084;50.956;3.106;2023-05-07T14:05:18;20.30;99.90
17918;DHT22;9084;50.956;3.106;2023-05-07T14:07:48;20.30;99.90
17918;DHT22;9084;50.956;3.106;2023-05-07T14:10:19;20.30;99.90
17918;DHT22;9084;50.956;3.106;2023-05-07T14:12:45;20.20;99.90
17918;DHT22;9084;50.956;3.106;2023-05-07T14:15:16;20.30;99.90
17918;DHT22;9084;50.956;3.106;2023-05-07T14:17:42;20.40;99.90
17918;DHT22;9084;50.956;3.106;2023-05-07T14:20:12;20.60;99.90
17918;DHT22;9084;50.956;3.106;2023-05-07T14:22:40;20.70;99.90
17918;DHT22;9084;50.956;3.106;2023-05-07T14:25:08;20.60;99.90
17918;DHT22;9084;50.956;3.106;2023-05-07T14:27:34;20.50;99.90
17918;DHT22;9084;50.956;3.106;2023-05-07T14:30:03;20.50;99.90
17918;DHT22;9084;50.956;3.106;2023-05-07T14:32:31;20.60;99.90
17918;DHT22;9084;50.956;3.106;2023-05-07T14:34:57;20.60;99.90
17918;DHT22;9084;50.956;3.106;2023-05-07T14:37:23;20.60;99.90
17918;DHT22;9084;50.956;3.106;2023-05-07T14:39:49;20.50;99.90
17918;DHT22;9084;50.956;3.106;2023-05-07T14:42:15;20.60;99.90
17918;DHT22;9084;50.956;3.106;2023-05-07T14:44:40;20.80;99.90
17918;DHT22;9084;50.956;3.106;2023-05-07T14:47:10;20.90;99.90
17918;DHT22;9084;50.956;3.106;2023-05-07T14:49:38;21.10;99.90
17918;DHT22;9084;50.956;3.106;2023-05-07T14:52:04;21.00;99.90
17918;DHT22;9084;50.956;3.106;2023-05-07T14:54:33;20.90;99.90
17918;DHT22;9084;50.956;3.106;2023-05-07T14:57:01;20.70;99.90
17918;DHT22;9084;50.956;3.106;2023-05-07T14:59:29;20.50;99.90
17918;DHT22;9084;50.956;3.106;2023-05-07T15:01:55;20.30;99.90
17918;DHT22;9084;50.956;3.106;2023-05-07T15:04:23;20.00;99.90
17918;DHT22;9084;50.956;3.106;2023-05-07T15:06:49;19.80;99.90
17918;DHT22;9084;50.956;3.106;2023-05-07T15:09:15;19.60;99.90
17918;DHT22;9084;50.956;3.106;2023-05-07T15:11:40;19.50;99.90
17918;DHT22;9084;50.956;3.106;2023-05-07T15:14:09;19.50;99.90
17918;DHT22;9084;50.956;3.106;2023-05-07T15:16:35;19.40;99.90
17918;DHT22;9084;50.956;3.106;2023-05-07T15:19:00;19.50;99.90
17918;DHT22;9084;50.956;3.106;2023-05-07T15:21:26;19.60;99.90
17918;DHT22;9084;50.956;3.106;2023-05-07T15:23:52;19.80;99.90
17918;DHT22;9084;50.956;3.106;2023-05-07T15:26:20;20.10;99.90
17918;DHT22;9084;50.956;3.106;2023-05-07T15:28:46;20.20;99.90
17918;DHT22;9084;50.956;3.106;2023-05-07T15:31:14;20.30;99.90
17918;DHT22;9084;50.956;3.106;2023-05-07T15:33:40;20.30;99.90
17918;DHT22;9084;50.956;3.106;2023-05-07T15:36:06;20.40;99.90
17918;DHT22;9084;50.956;3.106;2023-05-07T15:38:31;20.60;99.90
17918;DHT22;9084;50.956;3.106;2023-05-07T15:40:59;20.80;99.90
17918;DHT22;9084;50.956;3.106;2023-05-07T15:43:25;20.90;99.90
17918;DHT22;9084;50.956;3.106;2023-05-07T15:45:53;21.00;99.90
17918;DHT22;9084;50.956;3.106;2023-05-07T15:48:19;21.20;99.90
17918;DHT22;9084;50.956;3.106;2023-05-07T15:50:45;21.30;99.90
17918;DHT22;9084;50.956;3.106;2023-05-07T15:53:11;21.50;99.90
17918;DHT22;9084;50.956;3.106;2023-05-07T15:55:41;21.50;99.90
17918;DHT22;9084;50.956;3.106;2023-05-07T15:58:09;21.30;99.90
17918;DHT22;9084;50.956;3.106;2023-05-07T16:00:34;21.00;99.90
17918;DHT22;9084;50.956;3.106;2023-05-07T16:03:00;20.60;99.90
17918;DHT22;9084;50.956;3.106;2023-05-07T16:05:27;20.20;99.90
17918;DHT22;9084;50.956;3.106;2023-05-07T16:07:55;19.90;99.90
17918;DHT22;9084;50.956;3.106;2023-05-07T16:10:21;19.60;99.90
17918;DHT22;9084;50.956;3.106;2023-05-07T16:12:47;19.50;99.90